Time;durP1;ratioP1;P1;durP2;ratioP2;P2;SDS_P1;SDS_P2;PMS_P1;PMS_P2;Temp;Humidity;BMP_temperature;BMP_pressure;BME280_temperature;BME280_humidity;BME280_pressure;Samples;Min_cycle;Max_cycle;Signal;HPM_P1;HPM_P2
2023/09/23 00:00:13;;;;;;;2.42;1.15;;;;;;;;;;5042848;28;20609;-59
2023/09/23 00:02:39;;;;;;;1.73;1.33;;;;;;;;;;5062328;28;20056;-59
2023/09/23 00:05:11;;;;;;;2.17;1.02;;;;;;;;;;5063231;28;20504;-60
2023/09/23 00:07:39;;;;;;;1.73;1.30;;;;;;;;;;5063029;28;20100;-60
2023/09/23 00:10:09;;;;;;;1.85;1.38;;;;;;;;;;5061813;28;20057;-59
2023/09/23 00:12:36;;;;;;;1.98;1.40;;;;;;;;;;5062861;28;20397;-59
2023/09/23 00:15:03;;;;;;;3.00;1.30;;;;;;;;;;5072981;28;20056;-60
2023/09/23 00:17:31;;;;;;;3.53;1.52;;;;;;;;;;5075303;28;20053;-60
2023/09/23 00:19:58;;;;;;;2.00;1.50;;;;;;;;;;5062918;28;20528;-60
2023/09/23 00:22:24;;;;;;;1.83;1.35;;;;;;;;;;5062941;28;20495;-58
2023/09/23 00:24:51;;;;;;;2.45;1.65;;;;;;;;;;5062272;28;20107;-60
2023/09/23 00:27:19;;;;;;;3.65;1.90;;;;;;;;;;5051137;28;20057;-59
2023/09/23 00:29:45;;;;;;;2.72;1.80;;;;;;;;;;5051224;28;20499;-60
2023/09/23 00:32:12;;;;;;;2.13;1.90;;;;;;;;;;5062239;28;20128;-60
2023/09/23 00:34:39;;;;;;;2.60;2.00;;;;;;;;;;5060870;28;20081;-60
2023/09/23 00:37:08;;;;;;;2.88;2.28;;;;;;;;;;5063091;28;21271;-59
2023/09/23 00:39:42;;;;;;;3.97;2.67;;;;;;;;;;5052766;28;20107;-60
2023/09/23 00:42:10;;;;;;;5.35;2.35;;;;;;;;;;5059873;28;20049;-60
2023/09/23 00:44:39;;;;;;;2.65;2.25;;;;;;;;;;5062064;28;20519;-60
2023/09/23 00:47:07;;;;;;;4.80;3.20;;;;;;;;;;5062612;28;20579;-59
2023/09/23 00:49:36;;;;;;;4.20;2.72;;;;;;;;;;5061304;28;20053;-59
2023/09/23 00:52:06;;;;;;;3.80;3.30;;;;;;;;;;5062727;28;20056;-61
2023/09/23 00:54:36;;;;;;;4.15;2.85;;;;;;;;;;5062976;28;20080;-59
2023/09/23 00:57:04;;;;;;;3.83;3.03;;;;;;;;;;5062773;28;20053;-60
2023/09/23 00:59:35;;;;;;;3.90;2.75;;;;;;;;;;5061991;28;20144;-60
2023/09/23 01:02:05;;;;;;;3.58;2.80;;;;;;;;;;5061556;28;20087;-60
2023/09/23 01:04:33;;;;;;;5.05;2.70;;;;;;;;;;5062405;28;20142;-57
2023/09/23 01:07:02;;;;;;;9.18;3.50;;;;;;;;;;5062704;28;20521;-59
2023/09/23 01:09:31;;;;;;;4.18;2.53;;;;;;;;;;5060575;28;20060;-60
2023/09/23 01:11:57;;;;;;;3.17;2.63;;;;;;;;;;5058319;28;20049;-60
2023/09/23 01:14:25;;;;;;;4.20;2.60;;;;;;;;;;5062468;28;20150;-59
2023/09/23 01:16:51;;;;;;;2.20;2.00;;;;;;;;;;5062554;28;20112;-59
2023/09/23 01:19:20;;;;;;;2.35;2.08;;;;;;;;;;5061780;28;20487;-60
2023/09/23 01:21:49;;;;;;;4.97;2.50;;;;;;;;;;5061897;28;20053;-60
2023/09/23 01:24:19;;;;;;;3.05;2.67;;;;;;;;;;5059972;28;20060;-60
2023/09/23 01:26:51;;;;;;;2.20;1.95;;;;;;;;;;5062683;28;20872;-60
2023/09/23 01:29:22;;;;;;;2.78;2.08;;;;;;;;;;5065579;28;20540;-59
2023/09/23 01:32:21;;;;;;;2.70;1.83;;;;;;;;;;5064589;28;20519;-59
2023/09/23 01:34:48;;;;;;;1.65;1.40;;;;;;;;;;5020636;28;20351;-60
2023/09/23 01:37:15;;;;;;;2.42;1.90;;;;;;;;;;5038449;28;20054;-60
2023/09/23 01:39:41;;;;;;;2.83;2.10;;;;;;;;;;5021705;28;20532;-60
2023/09/23 01:42:08;;;;;;;21.13;3.80;;;;;;;;;;5002464;28;20061;-59
2023/09/23 01:44:34;;;;;;;4.93;3.83;;;;;;;;;;5002809;28;20129;-60
2023/09/23 01:47:01;;;;;;;5.53;4.72;;;;;;;;;;5019992;28;20054;-60
2023/09/23 01:49:28;;;;;;;8.75;5.70;;;;;;;;;;5022122;28;20350;-60
2023/09/23 01:51:55;;;;;;;6.47;5.13;;;;;;;;;;5022697;28;20086;-59
2023/09/23 01:54:21;;;;;;;7.00;6.22;;;;;;;;;;5014498;28;20556;-59
2023/09/23 01:56:48;;;;;;;12.43;9.13;;;;;;;;;;5004939;28;20053;-60
2023/09/23 01:59:14;;;;;;;14.75;9.05;;;;;;;;;;5022178;28;20141;-61
2023/09/23 02:01:41;;;;;;;13.07;9.93;;;;;;;;;;5021822;28;20543;-60
2023/09/23 02:04:08;;;;;;;15.30;11.02;;;;;;;;;;5020237;28;20168;-59
2023/09/23 02:06:40;;;;;;;14.82;10.90;;;;;;;;;;5007695;28;20061;-60
2023/09/23 02:09:09;;;;;;;17.15;12.05;;;;;;;;;;5002382;28;20137;-60
2023/09/23 02:11:37;;;;;;;16.65;12.70;;;;;;;;;;5039714;28;20420;-60
2023/09/23 02:14:06;;;;;;;18.75;12.20;;;;;;;;;;5044855;28;20053;-60
2023/09/23 02:16:33;;;;;;;16.48;12.43;;;;;;;;;;5044877;28;20055;-59
2023/09/23 02:19:02;;;;;;;14.90;11.57;;;;;;;;;;5044559;28;20064;-59
2023/09/23 02:21:28;;;;;;;13.90;11.48;;;;;;;;;;5044780;28;20135;-58
2023/09/23 02:23:57;;;;;;;17.90;12.75;;;;;;;;;;5062122;28;20048;-60
2023/09/23 02:26:24;;;;;;;14.45;12.63;;;;;;;;;;5063965;28;20163;-60
2023/09/23 02:28:50;;;;;;;16.55;11.80;;;;;;;;;;5064757;28;20064;-58
2023/09/23 02:31:18;;;;;;;14.48;12.23;;;;;;;;;;5064395;28;20049;-58
2023/09/23 02:33:44;;;;;;;18.20;12.98;;;;;;;;;;5047590;28;20579;-61
2023/09/23 02:36:14;;;;;;;17.83;13.60;;;;;;;;;;5044358;28;20160;-60
2023/09/23 02:38:42;;;;;;;18.50;14.23;;;;;;;;;;5040526;28;20145;-59
2023/09/23 02:41:09;;;;;;;16.75;13.07;;;;;;;;;;5053252;28;20105;-60
2023/09/23 02:43:37;;;;;;;18.08;13.77;;;;;;;;;;5049480;28;20124;-60
2023/09/23 02:46:05;;;;;;;17.13;13.90;;;;;;;;;;5063166;28;20473;-60
2023/09/23 02:48:33;;;;;;;19.60;14.15;;;;;;;;;;5064748;28;20084;-58
2023/09/23 02:51:03;;;;;;;18.55;14.65;;;;;;;;;;5064843;28;20550;-60
2023/09/23 02:53:30;;;;;;;25.35;16.23;;;;;;;;;;5063088;28;20149;-61
2023/09/23 02:56:04;;;;;;;23.88;15.85;;;;;;;;;;5064492;28;20517;-60
2023/09/23 02:58:30;;;;;;;20.55;15.43;;;;;;;;;;5044167;28;20054;-60
2023/09/23 03:00:57;;;;;;;19.75;15.05;;;;;;;;;;5043837;28;20053;-59
2023/09/23 03:03:24;;;;;;;23.48;16.45;;;;;;;;;;5044235;28;20662;-61
2023/09/23 03:05:57;;;;;;;22.55;16.30;;;;;;;;;;5043557;28;20045;-59
2023/09/23 03:08:24;;;;;;;19.25;15.23;;;;;;;;;;5043228;28;20480;-60
2023/09/23 03:10:52;;;;;;;21.45;16.27;;;;;;;;;;5048810;28;20107;-59
2023/09/23 03:13:18;;;;;;;22.65;16.65;;;;;;;;;;5044162;28;20054;-60
2023/09/23 03:16:04;;;;;;;22.35;17.08;;;;;;;;;;5043491;28;20049;-60
2023/09/23 03:18:38;;;;;;;21.63;15.73;;;;;;;;;;5043208;28;20072;-59
2023/09/23 03:21:10;;;;;;;20.25;16.63;;;;;;;;;;5044179;28;20053;-59
2023/09/23 03:23:39;;;;;;;21.50;15.63;;;;;;;;;;5055963;28;20049;-60
2023/09/23 03:26:09;;;;;;;21.02;16.73;;;;;;;;;;5062979;28;20585;-58
2023/09/23 03:28:36;;;;;;;20.50;15.77;;;;;;;;;;5063588;28;20064;-59
2023/09/23 03:31:03;;;;;;;21.42;17.33;;;;;;;;;;5063798;28;20123;-60
2023/09/23 03:33:29;;;;;;;22.63;16.75;;;;;;;;;;5054353;28;20552;-60
2023/09/23 03:35:56;;;;;;;21.42;16.90;;;;;;;;;;5043145;28;20541;-60
2023/09/23 03:38:22;;;;;;;23.40;17.50;;;;;;;;;;5043687;28;20055;-60
2023/09/23 03:40:59;;;;;;;24.48;16.75;;;;;;;;;;5043054;28;20057;-59
2023/09/23 03:43:25;;;;;;;;;;;;;;;;;;5054917;28;20080;-60
2023/09/23 03:45:52;;;;;;;18.27;14.75;;;;;;;;;;5062533;28;44954;-57
2023/09/23 03:48:19;;;;;;;24.95;17.05;;;;;;;;;;5063442;28;20263;-61
2023/09/23 03:50:50;;;;;;;21.75;17.13;;;;;;;;;;5062683;28;20100;-60
2023/09/23 03:53:16;;;;;;;22.60;16.70;;;;;;;;;;5049154;28;20057;-59
2023/09/23 03:55:43;;;;;;;20.25;16.02;;;;;;;;;;5043152;28;20069;-60
2023/09/23 03:58:11;;;;;;;20.30;15.48;;;;;;;;;;5043092;28;20058;-60
2023/09/23 04:00:37;;;;;;;22.15;15.60;;;;;;;;;;5042792;28;20064;-60
2023/09/23 04:03:04;;;;;;;19.60;15.55;;;;;;;;;;5061062;28;20478;-59
2023/09/23 04:05:31;;;;;;;19.73;14.70;;;;;;;;;;5052983;28;20476;-60
2023/09/23 04:07:58;;;;;;;21.35;15.43;;;;;;;;;;5043182;28;20069;-60
2023/09/23 04:10:24;;;;;;;19.85;15.38;;;;;;;;;;5043145;28;20060;-60
2023/09/23 04:12:51;;;;;;;19.27;14.25;;;;;;;;;;5054155;28;20134;-60
2023/09/23 04:15:21;;;;;;;19.10;13.65;;;;;;;;;;5063375;28;20060;-61
2023/09/23 04:17:48;;;;;;;17.58;13.65;;;;;;;;;;5062464;28;20060;-60
2023/09/23 04:20:14;;;;;;;18.92;14.10;;;;;;;;;;5062363;28;20204;-59
2023/09/23 04:22:41;;;;;;;19.27;13.82;;;;;;;;;;5061321;28;20052;-60
2023/09/23 04:25:08;;;;;;;18.40;13.57;;;;;;;;;;5062037;28;20143;-60
2023/09/23 04:27:37;;;;;;;17.38;13.48;;;;;;;;;;5063494;28;20570;-60
2023/09/23 04:30:08;;;;;;;17.15;13.18;;;;;;;;;;5058952;28;20509;-60
2023/09/23 04:32:41;;;;;;;21.55;13.90;;;;;;;;;;5045781;28;20484;-60
2023/09/23 04:35:09;;;;;;;21.83;14.48;;;;;;;;;;5042487;28;20058;-59
2023/09/23 04:37:37;;;;;;;17.95;12.95;;;;;;;;;;5042642;28;20519;-59
2023/09/23 04:40:13;;;;;;;20.08;13.80;;;;;;;;;;5042999;28;20136;-58
2023/09/23 04:42:41;;;;;;;19.08;12.68;;;;;;;;;;5051756;28;20489;-59
2023/09/23 04:45:08;;;;;;;20.30;12.65;;;;;;;;;;5063177;28;20049;-59
2023/09/23 04:47:35;;;;;;;20.80;12.68;;;;;;;;;;5062871;28;20060;-60
2023/09/23 04:50:04;;;;;;;17.13;12.65;;;;;;;;;;5061607;28;20061;-60
2023/09/23 04:52:32;;;;;;;16.45;12.18;;;;;;;;;;5058146;28;20049;-60
2023/09/23 04:54:58;;;;;;;16.23;12.07;;;;;;;;;;5057399;28;20561;-59
2023/09/23 04:57:25;;;;;;;16.48;11.95;;;;;;;;;;5062285;28;20057;-59
2023/09/23 04:59:52;;;;;;;15.80;12.15;;;;;;;;;;5046837;28;20072;-60
2023/09/23 05:02:18;;;;;;;20.00;13.13;;;;;;;;;;5052332;28;20060;-59
2023/09/23 05:04:45;;;;;;;13.82;10.25;;;;;;;;;;5065117;28;20045;-59
2023/09/23 05:07:14;;;;;;;17.08;11.48;;;;;;;;;;5065820;28;20060;-61
2023/09/23 05:09:41;;;;;;;16.27;9.85;;;;;;;;;;5064854;28;20517;-59
2023/09/23 05:12:09;;;;;;;14.60;10.48;;;;;;;;;;5066109;28;20144;-59
2023/09/23 05:14:36;;;;;;;20.23;10.27;;;;;;;;;;5066962;28;20053;-58
2023/09/23 05:17:05;;;;;;;14.23;10.10;;;;;;;;;;5048987;28;20544;-58
2023/09/23 05:19:32;;;;;;;15.13;10.07;;;;;;;;;;5045568;28;20515;-59
2023/09/23 05:21:59;;;;;;;12.98;9.75;;;;;;;;;;5046747;28;20571;-60
2023/09/23 05:24:28;;;;;;;12.07;9.55;;;;;;;;;;5064823;28;20049;-60
2023/09/23 05:26:55;;;;;;;11.57;10.07;;;;;;;;;;5065761;28;20637;-60
2023/09/23 05:29:22;;;;;;;15.00;10.15;;;;;;;;;;5065887;28;20495;-60
2023/09/23 05:31:48;;;;;;;14.77;10.13;;;;;;;;;;5057618;28;20196;-59
2023/09/23 05:34:15;;;;;;;17.30;10.93;;;;;;;;;;5065520;28;20057;-64
2023/09/23 05:36:42;;;;;;;15.05;10.13;;;;;;;;;;5064341;28;20048;-60
2023/09/23 05:39:08;;;;;;;19.27;11.63;;;;;;;;;;5065331;28;20045;-60
2023/09/23 05:41:34;;;;;;;17.02;10.77;;;;;;;;;;5065532;28;20068;-60
2023/09/23 05:44:02;;;;;;;14.20;11.20;;;;;;;;;;5065587;28;20107;-60
2023/09/23 05:46:28;;;;;;;14.80;10.38;;;;;;;;;;5063954;28;20053;-60
2023/09/23 05:48:55;;;;;;;14.57;9.95;;;;;;;;;;5065573;28;20082;-60
2023/09/23 05:51:21;;;;;;;15.93;10.38;;;;;;;;;;5064836;28;20134;-59
2023/09/23 05:53:48;;;;;;;13.90;10.20;;;;;;;;;;5064284;28;20059;-61
2023/09/23 05:56:15;;;;;;;15.48;9.88;;;;;;;;;;5065304;28;20104;-60
2023/09/23 05:58:41;;;;;;;14.18;10.38;;;;;;;;;;5065053;28;20049;-61
2023/09/23 06:01:07;;;;;;;15.10;10.60;;;;;;;;;;5064217;28;20542;-60
2023/09/23 06:03:34;;;;;;;16.38;10.77;;;;;;;;;;5065643;28;20527;-60
2023/09/23 06:06:01;;;;;;;12.68;9.32;;;;;;;;;;5065616;28;20053;-60
2023/09/23 06:08:27;;;;;;;15.73;10.60;;;;;;;;;;5065152;28;20611;-58
2023/09/23 06:10:59;;;;;;;21.10;10.25;;;;;;;;;;5064249;28;20057;-60
2023/09/23 06:13:26;;;;;;;17.13;9.52;;;;;;;;;;5063489;28;20085;-60
2023/09/23 06:15:52;;;;;;;16.95;8.68;;;;;;;;;;5064051;28;20106;-60
2023/09/23 06:18:19;;;;;;;12.25;8.55;;;;;;;;;;5064644;28;20049;-60
2023/09/23 06:20:46;;;;;;;13.35;8.75;;;;;;;;;;5063844;28;20492;-60
2023/09/23 06:23:12;;;;;;;13.63;8.02;;;;;;;;;;5053780;28;20490;-60
2023/09/23 06:25:38;;;;;;;11.25;7.70;;;;;;;;;;5063485;28;20049;-58
2023/09/23 06:28:06;;;;;;;12.07;7.43;;;;;;;;;;5064668;28;20145;-60
2023/09/23 06:30:32;;;;;;;8.18;7.03;;;;;;;;;;5063567;28;20053;-60
2023/09/23 06:32:58;;;;;;;15.88;7.38;;;;;;;;;;5064109;28;20333;-61
2023/09/23 06:35:25;;;;;;;12.00;7.50;;;;;;;;;;5064399;28;20055;-60
2023/09/23 06:37:51;;;;;;;12.02;6.63;;;;;;;;;;5064256;28;20048;-60
2023/09/23 06:40:18;;;;;;;11.15;7.60;;;;;;;;;;5064231;28;20065;-60
2023/09/23 06:42:44;;;;;;;11.00;6.95;;;;;;;;;;5064614;28;20084;-60
2023/09/23 06:45:12;;;;;;;10.43;6.47;;;;;;;;;;5065779;28;20589;-60
2023/09/23 06:47:38;;;;;;;12.38;7.13;;;;;;;;;;5071465;28;20053;-60
2023/09/23 06:50:05;;;;;;;10.48;6.57;;;;;;;;;;5063286;28;20053;-60
2023/09/23 06:52:32;;;;;;;8.77;6.00;;;;;;;;;;5063074;28;20546;-60
2023/09/23 06:54:59;;;;;;;14.70;6.53;;;;;;;;;;5063881;28;20052;-60
2023/09/23 06:57:25;;;;;;;9.88;5.55;;;;;;;;;;5067208;28;20056;-60
2023/09/23 06:59:52;;;;;;;9.90;5.53;;;;;;;;;;5081422;28;20056;-60
2023/09/23 07:02:19;;;;;;;11.20;5.40;;;;;;;;;;5063568;28;20083;-59
2023/09/23 07:04:46;;;;;;;12.32;5.20;;;;;;;;;;5064186;28;20499;-61
2023/09/23 07:07:13;;;;;;;6.55;4.55;;;;;;;;;;5064238;28;20103;-60
2023/09/23 07:09:39;;;;;;;12.02;5.53;;;;;;;;;;5063318;28;20053;-60
2023/09/23 07:12:06;;;;;;;8.05;5.57;;;;;;;;;;5064010;28;20060;-60
2023/09/23 07:14:33;;;;;;;6.63;4.90;;;;;;;;;;5063822;28;20057;-61
2023/09/23 07:16:59;;;;;;;6.40;4.68;;;;;;;;;;5064078;28;20530;-60
2023/09/23 07:19:26;;;;;;;10.45;4.90;;;;;;;;;;5064062;28;20063;-60
2023/09/23 07:21:52;;;;;;;6.38;4.80;;;;;;;;;;5062367;28;20060;-61
2023/09/23 07:24:19;;;;;;;9.98;5.20;;;;;;;;;;5062049;28;20048;-61
2023/09/23 07:26:45;;;;;;;13.18;5.43;;;;;;;;;;5023953;28;20054;-60
2023/09/23 07:29:12;;;;;;;10.70;4.93;;;;;;;;;;5023401;28;20057;-60
2023/09/23 07:31:38;;;;;;;12.57;5.20;;;;;;;;;;5053190;28;20058;-60
2023/09/23 07:34:05;;;;;;;10.80;5.05;;;;;;;;;;5025293;28;20143;-60
2023/09/23 07:36:32;;;;;;;9.18;4.65;;;;;;;;;;5023806;28;20588;-60
2023/09/23 07:38:58;;;;;;;7.10;4.47;;;;;;;;;;5035796;28;20053;-60
2023/09/23 07:41:25;;;;;;;11.52;5.07;;;;;;;;;;5043255;28;20064;-60
2023/09/23 07:43:51;;;;;;;6.88;4.95;;;;;;;;;;5042588;28;20131;-60
2023/09/23 07:46:17;;;;;;;9.45;4.97;;;;;;;;;;5043315;28;20065;-60
2023/09/23 07:48:44;;;;;;;8.80;5.35;;;;;;;;;;5042253;28;20057;-59
2023/09/23 07:51:12;;;;;;;7.78;4.60;;;;;;;;;;5023602;28;20053;-59
2023/09/23 07:53:38;;;;;;;8.20;4.90;;;;;;;;;;5023625;28;20148;-60
2023/09/23 07:56:05;;;;;;;10.23;5.22;;;;;;;;;;5024165;28;20058;-60
2023/09/23 07:58:32;;;;;;;12.73;5.38;;;;;;;;;;5023274;28;20177;-59
2023/09/23 08:00:58;;;;;;;9.32;6.10;;;;;;;;;;5022352;28;20119;-60
2023/09/23 08:03:26;;;;;;;9.15;5.72;;;;;;;;;;5022201;28;20054;-60
2023/09/23 08:05:53;;;;;;;6.63;5.28;;;;;;;;;;5023236;28;20058;-60
2023/09/23 08:08:20;;;;;;;8.63;5.38;;;;;;;;;;5023118;28;20626;-60
2023/09/23 08:10:49;;;;;;;11.63;5.85;;;;;;;;;;5022370;28;20056;-60
2023/09/23 08:13:16;;;;;;;9.63;5.65;;;;;;;;;;5022495;28;20505;-58
2023/09/23 08:15:42;;;;;;;13.30;6.57;;;;;;;;;;5023284;28;20078;-59
2023/09/23 08:18:09;;;;;;;9.48;6.47;;;;;;;;;;5023144;28;20096;-60
2023/09/23 08:20:35;;;;;;;9.93;5.38;;;;;;;;;;5021431;28;20150;-58
2023/09/23 08:23:03;;;;;;;6.38;5.00;;;;;;;;;;5022024;28;20204;-60
2023/09/23 08:25:30;;;;;;;12.63;5.22;;;;;;;;;;5042518;28;20130;-61
2023/09/23 08:27:57;;;;;;;6.38;4.75;;;;;;;;;;5062616;28;20063;-61
2023/09/23 08:30:24;;;;;;;10.15;5.05;;;;;;;;;;5062567;28;20676;-60
2023/09/23 08:32:51;;;;;;;8.77;4.93;;;;;;;;;;5063631;28;20068;-60
2023/09/23 08:35:18;;;;;;;7.60;4.30;;;;;;;;;;5063047;28;20092;-60
2023/09/23 08:37:47;;;;;;;7.95;4.55;;;;;;;;;;5064237;28;20057;-59
2023/09/23 08:40:16;;;;;;;8.57;5.38;;;;;;;;;;5066640;28;20107;-59
2023/09/23 08:42:42;;;;;;;7.50;5.30;;;;;;;;;;5066294;28;20056;-61
2023/09/23 08:45:09;;;;;;;9.25;5.30;;;;;;;;;;5066437;28;20111;-59
2023/09/23 08:47:39;;;;;;;8.65;5.13;;;;;;;;;;5066007;28;20056;-60
2023/09/23 08:50:06;;;;;;;5.55;4.70;;;;;;;;;;5066700;28;20518;-60
2023/09/23 08:52:33;;;;;;;7.22;4.75;;;;;;;;;;5067029;28;20405;-60
2023/09/23 08:54:59;;;;;;;9.32;4.80;;;;;;;;;;5064431;28;20049;-59
2023/09/23 08:57:26;;;;;;;6.63;4.57;;;;;;;;;;5066078;28;20060;-58
2023/09/23 08:59:52;;;;;;;6.22;4.18;;;;;;;;;;5065253;28;20129;-60
2023/09/23 09:02:21;;;;;;;12.45;5.50;;;;;;;;;;5065675;28;20057;-58
2023/09/23 09:04:47;;;;;;;5.00;4.18;;;;;;;;;;5066021;28;20064;-61
2023/09/23 09:07:14;;;;;;;10.32;4.30;;;;;;;;;;5065377;28;20060;-61
2023/09/23 09:09:40;;;;;;;5.55;3.78;;;;;;;;;;5065624;28;20080;-61
2023/09/23 09:12:07;;;;;;;9.02;3.90;;;;;;;;;;5065755;28;20057;-59
2023/09/23 09:14:34;;;;;;;6.28;4.05;;;;;;;;;;5066048;28;20134;-60
2023/09/23 09:17:01;;;;;;;10.50;4.35;;;;;;;;;;5066377;28;20057;-60
2023/09/23 09:19:27;;;;;;;7.72;4.20;;;;;;;;;;5077628;28;20089;-60
2023/09/23 09:21:55;;;;;;;7.88;3.85;;;;;;;;;;5086066;28;20084;-61
2023/09/23 09:24:23;;;;;;;5.25;4.15;;;;;;;;;;5085186;28;20153;-60
2023/09/23 09:26:50;;;;;;;7.35;4.70;;;;;;;;;;5086348;28;20056;-59
2023/09/23 09:29:16;;;;;;;7.38;4.38;;;;;;;;;;5082758;28;20056;-61
2023/09/23 09:31:44;;;;;;;7.40;4.22;;;;;;;;;;5065587;28;20053;-61
2023/09/23 09:34:12;;;;;;;7.35;4.47;;;;;;;;;;5065559;28;20053;-61
2023/09/23 09:36:39;;;;;;;6.20;4.45;;;;;;;;;;5065554;28;20466;-60
2023/09/23 09:39:08;;;;;;;6.82;4.50;;;;;;;;;;5064282;28;20052;-61
2023/09/23 09:41:42;;;;;;;9.18;4.53;;;;;;;;;;5065120;28;20620;-61
2023/09/23 09:44:08;;;;;;;5.93;4.97;;;;;;;;;;5065550;28;20080;-61
2023/09/23 09:46:38;;;;;;;12.23;5.40;;;;;;;;;;5064288;28;20056;-61
2023/09/23 09:49:06;;;;;;;7.22;4.55;;;;;;;;;;5081319;28;20049;-60
2023/09/23 09:51:33;;;;;;;9.23;4.32;;;;;;;;;;5065677;28;20056;-61
2023/09/23 09:54:01;;;;;;;6.10;4.40;;;;;;;;;;5065624;28;20057;-61
2023/09/23 09:56:27;;;;;;;8.50;5.10;;;;;;;;;;5065167;28;20483;-59
2023/09/23 09:58:55;;;;;;;10.20;4.45;;;;;;;;;;5065813;28;20053;-60
2023/09/23 10:01:22;;;;;;;6.82;4.57;;;;;;;;;;5064050;28;20049;-61
2023/09/23 10:03:51;;;;;;;5.50;3.60;;;;;;;;;;5065230;28;20579;-61
2023/09/23 10:06:19;;;;;;;5.00;4.20;;;;;;;;;;5064154;28;20049;-60
2023/09/23 10:08:48;;;;;;;6.07;3.90;;;;;;;;;;5064205;28;20183;-60
2023/09/23 10:11:15;;;;;;;7.47;3.90;;;;;;;;;;5065360;28;20483;-61
2023/09/23 10:13:46;;;;;;;7.18;3.58;;;;;;;;;;5063576;28;20057;-61
2023/09/23 10:16:16;;;;;;;9.25;4.32;;;;;;;;;;5064382;28;20049;-61
2023/09/23 10:18:43;;;;;;;8.02;3.92;;;;;;;;;;5069410;28;20138;-61
2023/09/23 10:21:23;;;;;;;6.53;4.28;;;;;;;;;;5067358;28;20107;-61
2023/09/23 10:23:51;;;;;;;8.20;3.83;;;;;;;;;;5064250;28;20053;-60
2023/09/23 10:26:18;;;;;;;9.30;4.10;;;;;;;;;;5064643;28;20064;-61
2023/09/23 10:29:01;;;;;;;8.90;3.60;;;;;;;;;;5064839;28;20060;-60
2023/09/23 10:31:28;;;;;;;4.70;3.00;;;;;;;;;;5065091;28;20107;-61
2023/09/23 10:33:55;;;;;;;5.90;3.35;;;;;;;;;;5064930;28;20049;-60
2023/09/23 10:36:22;;;;;;;5.82;3.53;;;;;;;;;;5057915;28;20446;-60
2023/09/23 10:38:49;;;;;;;7.13;4.25;;;;;;;;;;5044395;28;20053;-60
2023/09/23 10:41:16;;;;;;;6.28;2.88;;;;;;;;;;5050074;28;20052;-61
2023/09/23 10:43:42;;;;;;;4.70;2.60;;;;;;;;;;5064948;28;20053;-60
2023/09/23 10:46:09;;;;;;;3.88;2.08;;;;;;;;;;5064497;28;20142;-60
2023/09/23 10:48:36;;;;;;;3.72;1.90;;;;;;;;;;5063550;28;20059;-60
2023/09/23 10:51:05;;;;;;;5.35;2.20;;;;;;;;;;5063655;28;20057;-60
2023/09/23 10:53:32;;;;;;;3.80;1.80;;;;;;;;;;5055868;28;21078;-59
2023/09/23 10:56:00;;;;;;;2.85;1.52;;;;;;;;;;5064346;28;20541;-60
2023/09/23 10:58:26;;;;;;;3.03;1.10;;;;;;;;;;5061218;28;20064;-59
2023/09/23 11:00:53;;;;;;;2.25;1.08;;;;;;;;;;5060649;28;20088;-60
2023/09/23 11:03:21;;;;;;;6.07;1.52;;;;;;;;;;5062797;28;20471;-59
2023/09/23 11:05:48;;;;;;;1.33;1.10;;;;;;;;;;5061819;28;20530;-61
2023/09/23 11:08:15;;;;;;;4.03;1.38;;;;;;;;;;5063580;28;20626;-60
2023/09/23 11:10:43;;;;;;;7.22;1.48;;;;;;;;;;5063282;28;20055;-59
2023/09/23 11:13:10;;;;;;;3.15;1.23;;;;;;;;;;5064046;28;20056;-61
2023/09/23 11:15:41;;;;;;;5.32;1.48;;;;;;;;;;5062703;28;20049;-60
2023/09/23 11:18:08;;;;;;;5.90;1.65;;;;;;;;;;5064585;28;20577;-60
2023/09/23 11:20:37;;;;;;;3.03;1.27;;;;;;;;;;5063841;28;20060;-60
2023/09/23 11:23:05;;;;;;;4.10;1.70;;;;;;;;;;5064377;28;20055;-58
2023/09/23 11:25:36;;;;;;;2.70;1.10;;;;;;;;;;5063267;28;20061;-60
2023/09/23 11:28:03;;;;;;;2.45;0.98;;;;;;;;;;5064386;28;20470;-60
2023/09/23 11:30:29;;;;;;;2.28;1.02;;;;;;;;;;5063222;28;20455;-60
2023/09/23 11:32:56;;;;;;;2.08;1.02;;;;;;;;;;5061058;28;20524;-60
2023/09/23 11:35:23;;;;;;;5.00;0.90;;;;;;;;;;5063122;28;20150;-60
2023/09/23 11:37:50;;;;;;;1.05;0.77;;;;;;;;;;5062577;28;20064;-60
2023/09/23 11:40:16;;;;;;;0.98;0.88;;;;;;;;;;5062946;28;20111;-59
2023/09/23 11:42:42;;;;;;;1.10;0.90;;;;;;;;;;5062979;28;20053;-61
2023/09/23 11:45:12;;;;;;;0.70;0.57;;;;;;;;;;5062846;28;20535;-60
2023/09/23 11:47:38;;;;;;;1.60;1.20;;;;;;;;;;5063517;28;20064;-61
2023/09/23 11:50:05;;;;;;;1.73;1.00;;;;;;;;;;5062745;28;20585;-58
2023/09/23 11:52:32;;;;;;;1.88;0.77;;;;;;;;;;5064111;28;20140;-60
2023/09/23 11:54:59;;;;;;;5.05;1.10;;;;;;;;;;5063592;28;20475;-60
2023/09/23 11:57:26;;;;;;;2.83;1.13;;;;;;;;;;5062975;28;20083;-61
2023/09/23 11:59:52;;;;;;;2.42;0.93;;;;;;;;;;5063563;28;20053;-61
2023/09/23 12:02:19;;;;;;;0.80;0.80;;;;;;;;;;5062859;28;20059;-60
2023/09/23 12:04:48;;;;;;;2.60;0.75;;;;;;;;;;5061305;28;20057;-60
2023/09/23 12:07:16;;;;;;;5.53;1.70;;;;;;;;;;5062500;28;20574;-60
2023/09/23 12:09:43;;;;;;;4.07;1.80;;;;;;;;;;5061648;28;20049;-60
2023/09/23 12:12:12;;;;;;;10.13;6.97;;;;;;;;;;5063381;28;20053;-61
2023/09/23 12:14:42;;;;;;;5.25;3.42;;;;;;;;;;5062449;28;20134;-61
2023/09/23 12:17:10;;;;;;;8.15;5.00;;;;;;;;;;5063203;28;20053;-60
2023/09/23 12:19:37;;;;;;;3.00;1.85;;;;;;;;;;5062675;28;20052;-59
2023/09/23 12:22:04;;;;;;;2.42;1.10;;;;;;;;;;5063568;28;20060;-61
2023/09/23 12:24:31;;;;;;;5.65;1.73;;;;;;;;;;5062447;28;20053;-61
2023/09/23 12:26:58;;;;;;;3.60;2.70;;;;;;;;;;5063073;28;20233;-61
2023/09/23 12:29:25;;;;;;;10.48;7.85;;;;;;;;;;5063395;28;20056;-58
2023/09/23 12:31:52;;;;;;;7.28;3.55;;;;;;;;;;5061846;28;20056;-60
2023/09/23 12:34:19;;;;;;;2.90;1.38;;;;;;;;;;5056703;28;20107;-60
2023/09/23 12:36:46;;;;;;;6.22;1.35;;;;;;;;;;5059533;28;20057;-60
2023/09/23 12:39:15;;;;;;;6.20;3.95;;;;;;;;;;5056183;28;20053;-60
2023/09/23 12:41:42;;;;;;;3.33;1.48;;;;;;;;;;5061968;28;20081;-61
2023/09/23 12:44:09;;;;;;;7.38;3.45;;;;;;;;;;5062893;28;20560;-60
2023/09/23 12:46:35;;;;;;;5.28;1.60;;;;;;;;;;5060435;28;20059;-59
2023/09/23 12:49:03;;;;;;;2.50;1.15;;;;;;;;;;5063238;28;20057;-60
2023/09/23 12:51:30;;;;;;;2.78;1.10;;;;;;;;;;5063315;28;20523;-61
2023/09/23 12:53:57;;;;;;;3.22;0.70;;;;;;;;;;5060605;28;20053;-60
2023/09/23 12:56:23;;;;;;;1.60;0.70;;;;;;;;;;5061966;28;20053;-59
2023/09/23 12:58:50;;;;;;;2.80;1.00;;;;;;;;;;5059998;28;20096;-60
2023/09/23 13:01:16;;;;;;;1.77;0.80;;;;;;;;;;5061681;28;20486;-59
2023/09/23 13:03:43;;;;;;;4.53;1.05;;;;;;;;;;5060220;28;20073;-60
2023/09/23 13:06:10;;;;;;;0.60;0.60;;;;;;;;;;5062181;28;20049;-61
2023/09/23 13:08:36;;;;;;;1.83;0.60;;;;;;;;;;5062187;28;20106;-60
2023/09/23 13:11:03;;;;;;;2.38;0.70;;;;;;;;;;5063191;28;20851;-60
2023/09/23 13:13:30;;;;;;;1.45;0.60;;;;;;;;;;5062300;28;20087;-59
2023/09/23 13:15:57;;;;;;;4.38;1.05;;;;;;;;;;5061295;28;20508;-61
2023/09/23 13:18:23;;;;;;;0.98;0.50;;;;;;;;;;5060769;28;20057;-61
2023/09/23 13:20:50;;;;;;;1.13;0.55;;;;;;;;;;5061442;28;20045;-60
2023/09/23 13:23:16;;;;;;;2.75;0.50;;;;;;;;;;5063852;28;20060;-61
2023/09/23 13:25:43;;;;;;;1.23;0.45;;;;;;;;;;5065224;28;20072;-61
2023/09/23 13:28:10;;;;;;;0.73;0.60;;;;;;;;;;5065300;28;20049;-60
2023/09/23 13:30:37;;;;;;;0.98;0.50;;;;;;;;;;5063839;28;20053;-60
2023/09/23 13:33:08;;;;;;;2.05;1.42;;;;;;;;;;5050869;28;20587;-60
2023/09/23 13:35:36;;;;;;;2.15;0.80;;;;;;;;;;5064454;28;20041;-58
2023/09/23 13:38:03;;;;;;;2.80;0.75;;;;;;;;;;5066262;28;20061;-61
2023/09/23 13:40:30;;;;;;;6.68;1.38;;;;;;;;;;5065811;28;20111;-61
2023/09/23 13:42:56;;;;;;;1.65;0.60;;;;;;;;;;5065370;28;20053;-60
2023/09/23 13:45:24;;;;;;;6.65;0.90;;;;;;;;;;5064860;28;20111;-60
2023/09/23 13:47:50;;;;;;;2.88;1.10;;;;;;;;;;5064945;28;20048;-60
2023/09/23 13:50:17;;;;;;;5.35;1.90;;;;;;;;;;5064078;28;20086;-58
2023/09/23 13:52:44;;;;;;;2.15;1.20;;;;;;;;;;5065470;28;20187;-59
2023/09/23 13:55:10;;;;;;;1.95;1.33;;;;;;;;;;5064605;28;20602;-60
2023/09/23 13:57:37;;;;;;;2.38;0.80;;;;;;;;;;5065182;28;20136;-59
2023/09/23 14:00:08;;;;;;;5.57;1.63;;;;;;;;;;5064454;28;20076;-59
2023/09/23 14:02:36;;;;;;;1.52;1.13;;;;;;;;;;5064945;28;20057;-60
2023/09/23 14:05:03;;;;;;;4.35;1.55;;;;;;;;;;5064962;28;20060;-59
2023/09/23 14:07:29;;;;;;;1.98;1.27;;;;;;;;;;5064168;28;20053;-59
2023/09/23 14:09:55;;;;;;;3.60;0.90;;;;;;;;;;5061626;28;20057;-59
2023/09/23 14:12:40;;;;;;;1.27;0.80;;;;;;;;;;5064377;28;20053;-59
2023/09/23 14:15:07;;;;;;;3.45;1.10;;;;;;;;;;5064522;28;20059;-59
2023/09/23 14:17:33;;;;;;;1.55;0.93;;;;;;;;;;5065544;28;20064;-57
2023/09/23 14:20:03;;;;;;;4.38;1.20;;;;;;;;;;5065425;28;20144;-60
2023/09/23 14:22:30;;;;;;;4.50;1.55;;;;;;;;;;5064771;28;20064;-59
2023/09/23 14:24:57;;;;;;;3.42;0.80;;;;;;;;;;5063737;28;20067;-60
2023/09/23 14:27:23;;;;;;;1.67;0.60;;;;;;;;;;5064940;28;20566;-60
2023/09/23 14:29:51;;;;;;;2.88;0.82;;;;;;;;;;5063806;28;20130;-59
2023/09/23 14:32:17;;;;;;;1.23;0.60;;;;;;;;;;5064245;28;20056;-59
2023/09/23 14:34:44;;;;;;;3.42;0.55;;;;;;;;;;5064421;28;20049;-60
2023/09/23 14:37:10;;;;;;;2.40;0.88;;;;;;;;;;5064622;28;20064;-59